Аэропорт: Михайловка. Барнаул

ICAO: UNBB

METAR:
2021-07-28 13:30:00
UNBB 281330Z 33002MPS CAVOK 20/05 Q1010 R24/CLRD66 NOSIG RMK QFE735
METAR:
2021-07-28 11:00:00
TAF UNBB 281100Z 2812/2912 28003G08MPS 9999 SCT040CB